sensor_id;sensor_type;location;lat;lon;timestamp;temperature;humidity
23471;DHT22;11908;50.806;4.424;2024-01-25T00:02:10;9.40;99.90
23471;DHT22;11908;50.806;4.424;2024-01-25T00:04:36;9.40;99.90
23471;DHT22;11908;50.806;4.424;2024-01-25T00:07:01;9.50;99.90
23471;DHT22;11908;50.806;4.424;2024-01-25T00:09:27;9.50;99.90
23471;DHT22;11908;50.806;4.424;2024-01-25T00:11:53;9.50;99.90
23471;DHT22;11908;50.806;4.424;2024-01-25T00:14:19;9.40;99.90
23471;DHT22;11908;50.806;4.424;2024-01-25T00:16:44;9.40;99.90
23471;DHT22;11908;50.806;4.424;2024-01-25T00:19:10;9.30;99.90
23471;DHT22;11908;50.806;4.424;2024-01-25T00:21:41;9.30;99.90
23471;DHT22;11908;50.806;4.424;2024-01-25T00:24:07;9.30;99.90
23471;DHT22;11908;50.806;4.424;2024-01-25T00:26:33;9.40;99.90
23471;DHT22;11908;50.806;4.424;2024-01-25T00:28:59;9.30;99.90
23471;DHT22;11908;50.806;4.424;2024-01-25T00:31:24;9.30;99.90
23471;DHT22;11908;50.806;4.424;2024-01-25T00:33:50;9.20;99.90
23471;DHT22;11908;50.806;4.424;2024-01-25T00:36:16;9.10;99.90
23471;DHT22;11908;50.806;4.424;2024-01-25T00:38:42;9.10;99.90
23471;DHT22;11908;50.806;4.424;2024-01-25T00:41:09;9.10;99.90
23471;DHT22;11908;50.806;4.424;2024-01-25T00:43:36;9.00;99.90
23471;DHT22;11908;50.806;4.424;2024-01-25T00:46:02;8.90;99.90
23471;DHT22;11908;50.806;4.424;2024-01-25T00:48:28;8.90;99.90
23471;DHT22;11908;50.806;4.424;2024-01-25T00:50:54;8.80;99.90
23471;DHT22;11908;50.806;4.424;2024-01-25T00:53:20;8.80;99.90
23471;DHT22;11908;50.806;4.424;2024-01-25T00:55:45;8.80;99.90
23471;DHT22;11908;50.806;4.424;2024-01-25T00:58:11;8.80;99.90
23471;DHT22;11908;50.806;4.424;2024-01-25T01:00:37;8.80;99.90
23471;DHT22;11908;50.806;4.424;2024-01-25T01:03:03;8.90;99.90
23471;DHT22;11908;50.806;4.424;2024-01-25T01:05:30;8.90;99.90
23471;DHT22;11908;50.806;4.424;2024-01-25T01:07:56;8.80;99.90
23471;DHT22;11908;50.806;4.424;2024-01-25T01:10:22;8.80;99.90
23471;DHT22;11908;50.806;4.424;2024-01-25T01:12:47;8.80;99.90
23471;DHT22;11908;50.806;4.424;2024-01-25T01:15:13;8.80;99.90
23471;DHT22;11908;50.806;4.424;2024-01-25T01:17:39;8.80;99.90
23471;DHT22;11908;50.806;4.424;2024-01-25T01:20:05;8.90;99.90
23471;DHT22;11908;50.806;4.424;2024-01-25T01:22:31;8.90;99.90
23471;DHT22;11908;50.806;4.424;2024-01-25T01:24:56;8.90;99.90
23471;DHT22;11908;50.806;4.424;2024-01-25T01:27:22;8.90;99.90
23471;DHT22;11908;50.806;4.424;2024-01-25T01:29:48;8.80;99.90
23471;DHT22;11908;50.806;4.424;2024-01-25T01:32:14;8.70;99.90
23471;DHT22;11908;50.806;4.424;2024-01-25T01:34:39;8.70;99.90
23471;DHT22;11908;50.806;4.424;2024-01-25T01:37:05;8.60;99.90
23471;DHT22;11908;50.806;4.424;2024-01-25T01:39:31;8.60;99.90
23471;DHT22;11908;50.806;4.424;2024-01-25T01:41:56;8.60;99.90
23471;DHT22;11908;50.806;4.424;2024-01-25T01:44:22;8.60;99.90
23471;DHT22;11908;50.806;4.424;2024-01-25T01:46:48;8.60;99.90
23471;DHT22;11908;50.806;4.424;2024-01-25T01:49:14;8.60;99.90
23471;DHT22;11908;50.806;4.424;2024-01-25T01:51:41;8.60;99.90
23471;DHT22;11908;50.806;4.424;2024-01-25T01:54:10;8.60;99.90
23471;DHT22;11908;50.806;4.424;2024-01-25T01:56:36;8.60;99.90
23471;DHT22;11908;50.806;4.424;2024-01-25T01:59:05;8.60;99.90
23471;DHT22;11908;50.806;4.424;2024-01-25T02:01:31;8.50;99.90
23471;DHT22;11908;50.806;4.424;2024-01-25T02:03:57;8.50;99.90
23471;DHT22;11908;50.806;4.424;2024-01-25T02:06:24;8.50;99.90
23471;DHT22;11908;50.806;4.424;2024-01-25T02:08:50;8.60;99.90
23471;DHT22;11908;50.806;4.424;2024-01-25T02:11:17;8.60;99.90
23471;DHT22;11908;50.806;4.424;2024-01-25T02:13:43;8.50;99.90
23471;DHT22;11908;50.806;4.424;2024-01-25T02:16:09;8.50;99.90
23471;DHT22;11908;50.806;4.424;2024-01-25T02:18:35;8.40;99.90
23471;DHT22;11908;50.806;4.424;2024-01-25T02:21:00;8.40;99.90
23471;DHT22;11908;50.806;4.424;2024-01-25T02:23:26;8.40;99.90
23471;DHT22;11908;50.806;4.424;2024-01-25T02:25:52;8.30;99.90
23471;DHT22;11908;50.806;4.424;2024-01-25T02:28:18;8.40;99.90
23471;DHT22;11908;50.806;4.424;2024-01-25T02:30:44;8.30;99.90
23471;DHT22;11908;50.806;4.424;2024-01-25T02:33:10;8.20;99.90
23471;DHT22;11908;50.806;4.424;2024-01-25T02:35:36;8.10;99.90
23471;DHT22;11908;50.806;4.424;2024-01-25T02:38:02;8.20;99.90
23471;DHT22;11908;50.806;4.424;2024-01-25T02:40:28;8.20;99.90
23471;DHT22;11908;50.806;4.424;2024-01-25T02:42:54;8.10;99.90
23471;DHT22;11908;50.806;4.424;2024-01-25T02:45:19;8.10;99.90
23471;DHT22;11908;50.806;4.424;2024-01-25T02:47:45;7.90;99.90
23471;DHT22;11908;50.806;4.424;2024-01-25T02:50:11;8.00;99.90
23471;DHT22;11908;50.806;4.424;2024-01-25T02:52:36;7.90;99.90
23471;DHT22;11908;50.806;4.424;2024-01-25T02:55:02;7.90;99.90
23471;DHT22;11908;50.806;4.424;2024-01-25T02:57:28;7.90;99.90
23471;DHT22;11908;50.806;4.424;2024-01-25T02:59:54;7.90;99.90
23471;DHT22;11908;50.806;4.424;2024-01-25T03:02:20;7.80;99.90
23471;DHT22;11908;50.806;4.424;2024-01-25T03:04:45;7.70;99.90
23471;DHT22;11908;50.806;4.424;2024-01-25T03:07:11;7.80;99.90
23471;DHT22;11908;50.806;4.424;2024-01-25T03:09:37;7.80;99.90
23471;DHT22;11908;50.806;4.424;2024-01-25T03:12:03;7.80;99.90
23471;DHT22;11908;50.806;4.424;2024-01-25T03:14:28;7.80;99.90
23471;DHT22;11908;50.806;4.424;2024-01-25T03:16:54;7.70;99.90
23471;DHT22;11908;50.806;4.424;2024-01-25T03:19:20;7.80;99.90
23471;DHT22;11908;50.806;4.424;2024-01-25T03:21:45;7.80;99.90
23471;DHT22;11908;50.806;4.424;2024-01-25T03:24:11;7.80;99.90
23471;DHT22;11908;50.806;4.424;2024-01-25T03:26:37;7.80;99.90
23471;DHT22;11908;50.806;4.424;2024-01-25T03:29:03;7.70;99.90
23471;DHT22;11908;50.806;4.424;2024-01-25T03:31:28;7.40;99.90
23471;DHT22;11908;50.806;4.424;2024-01-25T03:33:54;7.30;99.90
23471;DHT22;11908;50.806;4.424;2024-01-25T03:36:20;7.40;99.90
23471;DHT22;11908;50.806;4.424;2024-01-25T03:38:46;7.40;99.90
23471;DHT22;11908;50.806;4.424;2024-01-25T03:41:11;7.40;99.90
23471;DHT22;11908;50.806;4.424;2024-01-25T03:43:37;7.40;99.90
23471;DHT22;11908;50.806;4.424;2024-01-25T03:46:03;7.30;99.90
23471;DHT22;11908;50.806;4.424;2024-01-25T03:48:29;7.30;99.90
23471;DHT22;11908;50.806;4.424;2024-01-25T03:50:55;7.20;99.90
23471;DHT22;11908;50.806;4.424;2024-01-25T03:53:22;7.20;99.90
23471;DHT22;11908;50.806;4.424;2024-01-25T03:55:49;7.20;99.90
23471;DHT22;11908;50.806;4.424;2024-01-25T03:58:16;7.20;99.90
23471;DHT22;11908;50.806;4.424;2024-01-25T04:00:42;7.20;99.90
23471;DHT22;11908;50.806;4.424;2024-01-25T04:03:08;7.20;99.90
23471;DHT22;11908;50.806;4.424;2024-01-25T04:05:34;7.20;99.90
23471;DHT22;11908;50.806;4.424;2024-01-25T04:08:00;7.20;99.90
23471;DHT22;11908;50.806;4.424;2024-01-25T04:10:25;7.30;99.90
23471;DHT22;11908;50.806;4.424;2024-01-25T04:12:52;7.20;99.90
23471;DHT22;11908;50.806;4.424;2024-01-25T04:15:18;7.00;99.90
23471;DHT22;11908;50.806;4.424;2024-01-25T04:17:43;6.90;99.90
23471;DHT22;11908;50.806;4.424;2024-01-25T04:20:09;6.60;99.90
23471;DHT22;11908;50.806;4.424;2024-01-25T04:22:36;6.60;99.90
23471;DHT22;11908;50.806;4.424;2024-01-25T04:25:02;6.60;99.90
23471;DHT22;11908;50.806;4.424;2024-01-25T04:27:28;6.70;99.90
23471;DHT22;11908;50.806;4.424;2024-01-25T04:29:53;6.70;99.90
23471;DHT22;11908;50.806;4.424;2024-01-25T04:32:19;6.70;99.90
23471;DHT22;11908;50.806;4.424;2024-01-25T04:34:45;6.70;99.90
23471;DHT22;11908;50.806;4.424;2024-01-25T04:37:13;6.80;99.90
23471;DHT22;11908;50.806;4.424;2024-01-25T04:39:39;6.80;99.90
23471;DHT22;11908;50.806;4.424;2024-01-25T04:42:05;6.90;99.90
23471;DHT22;11908;50.806;4.424;2024-01-25T04:44:31;6.80;99.90
23471;DHT22;11908;50.806;4.424;2024-01-25T04:46:56;6.80;99.90
23471;DHT22;11908;50.806;4.424;2024-01-25T04:49:22;6.70;99.90
23471;DHT22;11908;50.806;4.424;2024-01-25T04:51:48;6.50;99.90
23471;DHT22;11908;50.806;4.424;2024-01-25T04:54:13;6.50;99.90
23471;DHT22;11908;50.806;4.424;2024-01-25T04:56:41;6.50;99.90
23471;DHT22;11908;50.806;4.424;2024-01-25T04:59:07;6.50;99.90
23471;DHT22;11908;50.806;4.424;2024-01-25T05:01:33;6.50;99.90
23471;DHT22;11908;50.806;4.424;2024-01-25T05:03:59;6.50;99.90
23471;DHT22;11908;50.806;4.424;2024-01-25T05:06:25;6.40;99.90
23471;DHT22;11908;50.806;4.424;2024-01-25T05:08:51;6.40;99.90
23471;DHT22;11908;50.806;4.424;2024-01-25T05:11:17;6.40;99.90
23471;DHT22;11908;50.806;4.424;2024-01-25T05:13:43;6.40;99.90
23471;DHT22;11908;50.806;4.424;2024-01-25T05:16:08;6.40;99.90
23471;DHT22;11908;50.806;4.424;2024-01-25T05:18:34;6.40;99.90
23471;DHT22;11908;50.806;4.424;2024-01-25T05:21:00;6.40;99.90
23471;DHT22;11908;50.806;4.424;2024-01-25T05:23:26;6.40;99.90
23471;DHT22;11908;50.806;4.424;2024-01-25T05:25:52;6.30;99.90
23471;DHT22;11908;50.806;4.424;2024-01-25T05:28:18;6.30;99.90
23471;DHT22;11908;50.806;4.424;2024-01-25T05:30:43;6.20;99.90
23471;DHT22;11908;50.806;4.424;2024-01-25T05:33:09;6.20;99.90
23471;DHT22;11908;50.806;4.424;2024-01-25T05:35:35;6.20;99.90
23471;DHT22;11908;50.806;4.424;2024-01-25T05:38:01;6.30;99.90
23471;DHT22;11908;50.806;4.424;2024-01-25T05:40:27;6.20;99.90
23471;DHT22;11908;50.806;4.424;2024-01-25T05:42:53;6.20;99.90
23471;DHT22;11908;50.806;4.424;2024-01-25T05:45:18;6.10;99.90
23471;DHT22;11908;50.806;4.424;2024-01-25T05:47:47;6.10;99.90
23471;DHT22;11908;50.806;4.424;2024-01-25T05:50:13;6.10;99.90
23471;DHT22;11908;50.806;4.424;2024-01-25T05:52:38;6.10;99.90
23471;DHT22;11908;50.806;4.424;2024-01-25T05:55:05;6.10;99.90
23471;DHT22;11908;50.806;4.424;2024-01-25T05:57:31;6.10;99.90
23471;DHT22;11908;50.806;4.424;2024-01-25T05:59:57;6.20;99.90
23471;DHT22;11908;50.806;4.424;2024-01-25T06:02:22;6.20;99.90
23471;DHT22;11908;50.806;4.424;2024-01-25T06:04:48;6.20;99.90
23471;DHT22;11908;50.806;4.424;2024-01-25T06:07:13;6.20;99.90
23471;DHT22;11908;50.806;4.424;2024-01-25T06:09:39;6.30;99.90
23471;DHT22;11908;50.806;4.424;2024-01-25T06:12:05;6.30;99.90
23471;DHT22;11908;50.806;4.424;2024-01-25T06:14:31;6.30;99.90
23471;DHT22;11908;50.806;4.424;2024-01-25T06:16:56;6.30;99.90
23471;DHT22;11908;50.806;4.424;2024-01-25T06:19:22;6.20;99.90
23471;DHT22;11908;50.806;4.424;2024-01-25T06:21:49;6.30;99.90
23471;DHT22;11908;50.806;4.424;2024-01-25T06:24:15;6.30;99.90
23471;DHT22;11908;50.806;4.424;2024-01-25T06:26:41;6.30;99.90
23471;DHT22;11908;50.806;4.424;2024-01-25T06:29:06;6.20;99.90
23471;DHT22;11908;50.806;4.424;2024-01-25T06:31:32;6.20;99.90
23471;DHT22;11908;50.806;4.424;2024-01-25T06:33:57;6.20;99.90
23471;DHT22;11908;50.806;4.424;2024-01-25T06:36:23;6.20;99.90
23471;DHT22;11908;50.806;4.424;2024-01-25T06:38:49;6.20;99.90
23471;DHT22;11908;50.806;4.424;2024-01-25T06:41:15;6.20;99.90
23471;DHT22;11908;50.806;4.424;2024-01-25T06:43:41;6.10;99.90
23471;DHT22;11908;50.806;4.424;2024-01-25T06:46:07;6.10;99.90
23471;DHT22;11908;50.806;4.424;2024-01-25T06:48:33;6.10;99.90
23471;DHT22;11908;50.806;4.424;2024-01-25T06:50:59;6.20;99.90
23471;DHT22;11908;50.806;4.424;2024-01-25T06:53:28;6.20;99.90
23471;DHT22;11908;50.806;4.424;2024-01-25T06:55:53;6.10;99.90
23471;DHT22;11908;50.806;4.424;2024-01-25T06:58:19;6.10;99.90
23471;DHT22;11908;50.806;4.424;2024-01-25T07:00:45;6.20;99.90
23471;DHT22;11908;50.806;4.424;2024-01-25T07:03:12;6.20;99.90
23471;DHT22;11908;50.806;4.424;2024-01-25T07:05:38;6.30;99.90
23471;DHT22;11908;50.806;4.424;2024-01-25T07:08:04;6.30;99.90
23471;DHT22;11908;50.806;4.424;2024-01-25T07:10:30;6.30;99.90
23471;DHT22;11908;50.806;4.424;2024-01-25T07:12:56;6.30;99.90
23471;DHT22;11908;50.806;4.424;2024-01-25T07:15:22;6.40;99.90
23471;DHT22;11908;50.806;4.424;2024-01-25T07:17:47;6.40;99.90
23471;DHT22;11908;50.806;4.424;2024-01-25T07:20:13;6.50;99.90
23471;DHT22;11908;50.806;4.424;2024-01-25T07:22:40;6.70;99.90
23471;DHT22;11908;50.806;4.424;2024-01-25T07:25:06;6.70;99.90
23471;DHT22;11908;50.806;4.424;2024-01-25T07:27:32;6.80;99.90
23471;DHT22;11908;50.806;4.424;2024-01-25T07:29:57;6.80;99.90
23471;DHT22;11908;50.806;4.424;2024-01-25T07:32:23;6.80;99.90
23471;DHT22;11908;50.806;4.424;2024-01-25T07:34:52;6.90;99.90
23471;DHT22;11908;50.806;4.424;2024-01-25T07:37:19;6.90;99.90
23471;DHT22;11908;50.806;4.424;2024-01-25T07:39:45;7.00;99.90
23471;DHT22;11908;50.806;4.424;2024-01-25T07:42:11;7.00;99.90
23471;DHT22;11908;50.806;4.424;2024-01-25T07:44:37;7.10;99.90
23471;DHT22;11908;50.806;4.424;2024-01-25T07:47:03;7.00;99.90
23471;DHT22;11908;50.806;4.424;2024-01-25T07:49:29;7.00;99.90
23471;DHT22;11908;50.806;4.424;2024-01-25T07:51:55;7.10;99.90
23471;DHT22;11908;50.806;4.424;2024-01-25T07:54:24;7.20;99.90
23471;DHT22;11908;50.806;4.424;2024-01-25T07:56:49;7.30;99.90
23471;DHT22;11908;50.806;4.424;2024-01-25T07:59:15;7.40;99.90
23471;DHT22;11908;50.806;4.424;2024-01-25T08:01:41;7.40;99.90
23471;DHT22;11908;50.806;4.424;2024-01-25T08:04:07;7.20;99.90
23471;DHT22;11908;50.806;4.424;2024-01-25T08:06:32;7.20;99.90
23471;DHT22;11908;50.806;4.424;2024-01-25T08:08:58;7.20;99.90
23471;DHT22;11908;50.806;4.424;2024-01-25T08:11:24;7.20;99.90
23471;DHT22;11908;50.806;4.424;2024-01-25T08:13:50;7.20;99.90
23471;DHT22;11908;50.806;4.424;2024-01-25T08:16:16;7.30;99.90
23471;DHT22;11908;50.806;4.424;2024-01-25T08:18:48;7.50;99.90
23471;DHT22;11908;50.806;4.424;2024-01-25T08:21:14;7.60;99.90
23471;DHT22;11908;50.806;4.424;2024-01-25T08:23:39;7.70;99.90
23471;DHT22;11908;50.806;4.424;2024-01-25T08:26:05;7.70;99.90
23471;DHT22;11908;50.806;4.424;2024-01-25T08:28:35;7.70;99.90
23471;DHT22;11908;50.806;4.424;2024-01-25T08:31:01;7.70;99.90
23471;DHT22;11908;50.806;4.424;2024-01-25T08:33:27;7.70;99.90
23471;DHT22;11908;50.806;4.424;2024-01-25T08:35:53;7.70;99.90
23471;DHT22;11908;50.806;4.424;2024-01-25T08:38:18;7.80;99.90
23471;DHT22;11908;50.806;4.424;2024-01-25T08:40:44;8.00;99.90
23471;DHT22;11908;50.806;4.424;2024-01-25T08:43:10;7.90;99.90
23471;DHT22;11908;50.806;4.424;2024-01-25T08:45:35;8.00;99.90
23471;DHT22;11908;50.806;4.424;2024-01-25T08:48:02;8.10;99.90
23471;DHT22;11908;50.806;4.424;2024-01-25T08:50:28;8.10;99.90
23471;DHT22;11908;50.806;4.424;2024-01-25T08:52:54;8.10;99.90
23471;DHT22;11908;50.806;4.424;2024-01-25T08:55:19;8.20;99.90
23471;DHT22;11908;50.806;4.424;2024-01-25T08:57:45;8.30;99.90
23471;DHT22;11908;50.806;4.424;2024-01-25T09:00:11;8.30;99.90
23471;DHT22;11908;50.806;4.424;2024-01-25T09:02:38;8.20;99.90
23471;DHT22;11908;50.806;4.424;2024-01-25T09:05:05;8.20;99.90
23471;DHT22;11908;50.806;4.424;2024-01-25T09:07:31;8.20;99.90
23471;DHT22;11908;50.806;4.424;2024-01-25T09:09:57;8.30;99.90
23471;DHT22;11908;50.806;4.424;2024-01-25T09:12:23;8.40;99.90
23471;DHT22;11908;50.806;4.424;2024-01-25T09:14:49;8.40;99.90
23471;DHT22;11908;50.806;4.424;2024-01-25T09:17:14;8.40;99.90
23471;DHT22;11908;50.806;4.424;2024-01-25T09:19:41;8.50;99.90
23471;DHT22;11908;50.806;4.424;2024-01-25T09:22:07;8.60;99.90
23471;DHT22;11908;50.806;4.424;2024-01-25T09:24:35;8.80;99.90
23471;DHT22;11908;50.806;4.424;2024-01-25T09:27:04;9.00;99.90
23471;DHT22;11908;50.806;4.424;2024-01-25T09:29:30;9.10;99.90
23471;DHT22;11908;50.806;4.424;2024-01-25T09:31:56;9.30;99.90
23471;DHT22;11908;50.806;4.424;2024-01-25T09:34:21;9.40;99.90
23471;DHT22;11908;50.806;4.424;2024-01-25T09:36:47;9.50;99.90
23471;DHT22;11908;50.806;4.424;2024-01-25T09:39:13;9.50;99.90
23471;DHT22;11908;50.806;4.424;2024-01-25T09:41:40;9.60;99.90
23471;DHT22;11908;50.806;4.424;2024-01-25T09:44:08;9.60;99.90
23471;DHT22;11908;50.806;4.424;2024-01-25T09:46:34;9.60;99.90
23471;DHT22;11908;50.806;4.424;2024-01-25T09:49:01;9.70;99.90
23471;DHT22;11908;50.806;4.424;2024-01-25T09:51:32;9.80;99.90
23471;DHT22;11908;50.806;4.424;2024-01-25T09:54:00;9.90;99.90
23471;DHT22;11908;50.806;4.424;2024-01-25T09:56:27;10.20;99.90
23471;DHT22;11908;50.806;4.424;2024-01-25T09:58:55;10.00;99.90
23471;DHT22;11908;50.806;4.424;2024-01-25T10:01:21;10.10;99.90
23471;DHT22;11908;50.806;4.424;2024-01-25T10:03:47;10.30;99.90
23471;DHT22;11908;50.806;4.424;2024-01-25T10:06:13;10.60;99.90
23471;DHT22;11908;50.806;4.424;2024-01-25T10:08:39;10.60;99.90
23471;DHT22;11908;50.806;4.424;2024-01-25T10:11:05;10.70;99.90
23471;DHT22;11908;50.806;4.424;2024-01-25T10:13:31;10.70;99.90
23471;DHT22;11908;50.806;4.424;2024-01-25T10:15:57;11.00;99.90
23471;DHT22;11908;50.806;4.424;2024-01-25T10:18:24;11.00;99.90
23471;DHT22;11908;50.806;4.424;2024-01-25T10:20:54;11.00;99.90
23471;DHT22;11908;50.806;4.424;2024-01-25T10:23:20;10.80;99.90
23471;DHT22;11908;50.806;4.424;2024-01-25T10:25:47;10.80;99.90
23471;DHT22;11908;50.806;4.424;2024-01-25T10:28:13;10.80;99.90
23471;DHT22;11908;50.806;4.424;2024-01-25T10:30:39;10.80;99.90
23471;DHT22;11908;50.806;4.424;2024-01-25T10:33:05;10.80;99.90
23471;DHT22;11908;50.806;4.424;2024-01-25T10:35:32;10.80;99.90
23471;DHT22;11908;50.806;4.424;2024-01-25T10:37:58;10.70;99.90
23471;DHT22;11908;50.806;4.424;2024-01-25T10:40:25;10.80;99.90
23471;DHT22;11908;50.806;4.424;2024-01-25T10:42:51;10.90;99.90
23471;DHT22;11908;50.806;4.424;2024-01-25T10:45:17;10.80;99.90
23471;DHT22;11908;50.806;4.424;2024-01-25T10:47:43;10.90;99.90
23471;DHT22;11908;50.806;4.424;2024-01-25T10:50:13;10.90;99.90
23471;DHT22;11908;50.806;4.424;2024-01-25T10:52:40;10.90;99.90
23471;DHT22;11908;50.806;4.424;2024-01-25T10:55:06;10.80;99.90
23471;DHT22;11908;50.806;4.424;2024-01-25T10:57:43;10.80;99.90
23471;DHT22;11908;50.806;4.424;2024-01-25T11:00:12;10.80;99.90
23471;DHT22;11908;50.806;4.424;2024-01-25T11:02:41;10.80;99.90
23471;DHT22;11908;50.806;4.424;2024-01-25T11:05:12;11.00;99.90
23471;DHT22;11908;50.806;4.424;2024-01-25T11:07:49;11.00;99.90
23471;DHT22;11908;50.806;4.424;2024-01-25T11:10:17;11.00;99.90
23471;DHT22;11908;50.806;4.424;2024-01-25T11:15:34;10.80;99.90
23471;DHT22;11908;50.806;4.424;2024-01-25T11:18:04;10.90;99.90
23471;DHT22;11908;50.806;4.424;2024-01-25T11:20:34;10.80;99.90
23471;DHT22;11908;50.806;4.424;2024-01-25T11:23:05;10.80;99.90
23471;DHT22;11908;50.806;4.424;2024-01-25T11:25:33;10.70;99.90
23471;DHT22;11908;50.806;4.424;2024-01-25T11:28:00;10.90;99.90
23471;DHT22;11908;50.806;4.424;2024-01-25T11:30:30;10.90;99.90
23471;DHT22;11908;50.806;4.424;2024-01-25T11:32:56;10.90;99.90
23471;DHT22;11908;50.806;4.424;2024-01-25T11:35:22;10.90;99.90
23471;DHT22;11908;50.806;4.424;2024-01-25T11:37:49;11.00;99.90
23471;DHT22;11908;50.806;4.424;2024-01-25T11:40:18;10.80;99.90
23471;DHT22;11908;50.806;4.424;2024-01-25T11:42:45;10.70;99.90
23471;DHT22;11908;50.806;4.424;2024-01-25T11:45:11;10.80;99.90
23471;DHT22;11908;50.806;4.424;2024-01-25T11:47:38;10.70;99.90
23471;DHT22;11908;50.806;4.424;2024-01-25T11:50:05;10.90;99.90
23471;DHT22;11908;50.806;4.424;2024-01-25T11:52:35;10.90;99.90
23471;DHT22;11908;50.806;4.424;2024-01-25T11:55:06;11.00;99.90
23471;DHT22;11908;50.806;4.424;2024-01-25T11:57:35;10.80;99.90
23471;DHT22;11908;50.806;4.424;2024-01-25T12:00:02;10.70;99.90
23471;DHT22;11908;50.806;4.424;2024-01-25T12:02:29;10.60;99.90
23471;DHT22;11908;50.806;4.424;2024-01-25T12:04:56;10.60;99.90
23471;DHT22;11908;50.806;4.424;2024-01-25T12:07:22;10.60;99.90
23471;DHT22;11908;50.806;4.424;2024-01-25T12:10:06;10.50;99.90
23471;DHT22;11908;50.806;4.424;2024-01-25T12:12:32;10.60;99.90
23471;DHT22;11908;50.806;4.424;2024-01-25T12:14:59;10.50;99.90
23471;DHT22;11908;50.806;4.424;2024-01-25T12:17:27;10.40;99.90
23471;DHT22;11908;50.806;4.424;2024-01-25T12:19:58;10.50;99.90
23471;DHT22;11908;50.806;4.424;2024-01-25T12:22:26;10.50;99.90
23471;DHT22;11908;50.806;4.424;2024-01-25T12:24:56;10.70;99.90
23471;DHT22;11908;50.806;4.424;2024-01-25T12:27:23;10.70;99.90
23471;DHT22;11908;50.806;4.424;2024-01-25T12:29:50;10.80;99.90
23471;DHT22;11908;50.806;4.424;2024-01-25T12:32:16;10.80;99.90
23471;DHT22;11908;50.806;4.424;2024-01-25T12:34:55;10.80;99.90
23471;DHT22;11908;50.806;4.424;2024-01-25T12:37:21;10.80;99.90
23471;DHT22;11908;50.806;4.424;2024-01-25T12:39:48;10.80;99.90
23471;DHT22;11908;50.806;4.424;2024-01-25T12:42:13;10.80;99.90
23471;DHT22;11908;50.806;4.424;2024-01-25T12:44:39;10.80;99.90
23471;DHT22;11908;50.806;4.424;2024-01-25T12:47:05;11.00;99.90
23471;DHT22;11908;50.806;4.424;2024-01-25T12:49:33;10.90;99.90
23471;DHT22;11908;50.806;4.424;2024-01-25T12:51:59;10.90;99.90
23471;DHT22;11908;50.806;4.424;2024-01-25T12:54:25;10.80;99.90
23471;DHT22;11908;50.806;4.424;2024-01-25T12:56:50;10.70;99.90
23471;DHT22;11908;50.806;4.424;2024-01-25T12:59:16;10.60;99.90
23471;DHT22;11908;50.806;4.424;2024-01-25T13:01:42;10.80;99.90
23471;DHT22;11908;50.806;4.424;2024-01-25T13:04:08;10.90;99.90
23471;DHT22;11908;50.806;4.424;2024-01-25T13:06:33;10.80;99.90
23471;DHT22;11908;50.806;4.424;2024-01-25T13:08:59;10.80;99.90
23471;DHT22;11908;50.806;4.424;2024-01-25T13:11:25;10.90;99.90
23471;DHT22;11908;50.806;4.424;2024-01-25T13:13:51;10.80;99.90
23471;DHT22;11908;50.806;4.424;2024-01-25T13:16:17;10.90;99.90
23471;DHT22;11908;50.806;4.424;2024-01-25T13:18:42;10.90;99.90
23471;DHT22;11908;50.806;4.424;2024-01-25T13:21:09;11.00;99.90
23471;DHT22;11908;50.806;4.424;2024-01-25T13:23:34;11.00;99.90
23471;DHT22;11908;50.806;4.424;2024-01-25T13:26:01;11.10;99.90
23471;DHT22;11908;50.806;4.424;2024-01-25T13:28:27;11.30;99.90
23471;DHT22;11908;50.806;4.424;2024-01-25T13:30:52;11.40;99.90
23471;DHT22;11908;50.806;4.424;2024-01-25T13:33:19;11.40;99.90
23471;DHT22;11908;50.806;4.424;2024-01-25T13:35:45;11.30;99.90
23471;DHT22;11908;50.806;4.424;2024-01-25T13:38:11;11.30;99.90
23471;DHT22;11908;50.806;4.424;2024-01-25T13:40:40;11.30;99.90
23471;DHT22;11908;50.806;4.424;2024-01-25T13:43:06;11.40;99.90
23471;DHT22;11908;50.806;4.424;2024-01-25T13:45:31;11.40;99.90
23471;DHT22;11908;50.806;4.424;2024-01-25T13:47:57;11.50;99.90
23471;DHT22;11908;50.806;4.424;2024-01-25T13:50:23;11.50;99.90
23471;DHT22;11908;50.806;4.424;2024-01-25T13:52:48;11.40;99.90
23471;DHT22;11908;50.806;4.424;2024-01-25T13:55:14;11.50;99.90
23471;DHT22;11908;50.806;4.424;2024-01-25T13:57:40;11.40;99.90
23471;DHT22;11908;50.806;4.424;2024-01-25T14:00:06;11.40;99.90
23471;DHT22;11908;50.806;4.424;2024-01-25T14:02:33;11.40;99.90
23471;DHT22;11908;50.806;4.424;2024-01-25T14:04:59;11.30;99.90
23471;DHT22;11908;50.806;4.424;2024-01-25T14:07:25;11.20;99.90
23471;DHT22;11908;50.806;4.424;2024-01-25T14:09:51;11.20;99.90
23471;DHT22;11908;50.806;4.424;2024-01-25T14:12:17;11.20;99.90
23471;DHT22;11908;50.806;4.424;2024-01-25T14:14:43;11.30;99.90
23471;DHT22;11908;50.806;4.424;2024-01-25T14:17:09;11.10;99.90
23471;DHT22;11908;50.806;4.424;2024-01-25T14:19:34;10.90;99.90
23471;DHT22;11908;50.806;4.424;2024-01-25T14:22:00;10.90;99.90
23471;DHT22;11908;50.806;4.424;2024-01-25T14:24:26;10.80;99.90
23471;DHT22;11908;50.806;4.424;2024-01-25T14:26:52;10.80;99.90
23471;DHT22;11908;50.806;4.424;2024-01-25T14:29:17;10.90;99.90
23471;DHT22;11908;50.806;4.424;2024-01-25T14:31:43;10.80;99.90
23471;DHT22;11908;50.806;4.424;2024-01-25T14:34:09;10.80;99.90
23471;DHT22;11908;50.806;4.424;2024-01-25T14:36:35;10.80;99.90
23471;DHT22;11908;50.806;4.424;2024-01-25T14:39:00;10.90;99.90
23471;DHT22;11908;50.806;4.424;2024-01-25T14:41:27;11.00;99.90
23471;DHT22;11908;50.806;4.424;2024-01-25T14:43:53;11.00;99.90
23471;DHT22;11908;50.806;4.424;2024-01-25T14:46:19;10.90;99.90
23471;DHT22;11908;50.806;4.424;2024-01-25T14:48:44;10.90;99.90
23471;DHT22;11908;50.806;4.424;2024-01-25T14:51:10;10.90;99.90
23471;DHT22;11908;50.806;4.424;2024-01-25T14:53:35;10.80;99.90
23471;DHT22;11908;50.806;4.424;2024-01-25T14:56:01;10.80;99.90
23471;DHT22;11908;50.806;4.424;2024-01-25T14:58:27;10.90;99.90
23471;DHT22;11908;50.806;4.424;2024-01-25T15:00:52;10.90;99.90
23471;DHT22;11908;50.806;4.424;2024-01-25T15:03:19;10.80;99.90
23471;DHT22;11908;50.806;4.424;2024-01-25T15:05:44;10.80;99.90
23471;DHT22;11908;50.806;4.424;2024-01-25T15:08:11;10.80;99.90
23471;DHT22;11908;50.806;4.424;2024-01-25T15:10:36;10.70;99.90
23471;DHT22;11908;50.806;4.424;2024-01-25T15:13:02;10.80;99.90
23471;DHT22;11908;50.806;4.424;2024-01-25T15:15:28;10.80;99.90
23471;DHT22;11908;50.806;4.424;2024-01-25T15:17:54;10.80;99.90
23471;DHT22;11908;50.806;4.424;2024-01-25T15:20:21;10.80;99.90
23471;DHT22;11908;50.806;4.424;2024-01-25T15:22:46;10.80;99.90
23471;DHT22;11908;50.806;4.424;2024-01-25T15:25:12;10.70;99.90
23471;DHT22;11908;50.806;4.424;2024-01-25T15:27:38;10.60;99.90
23471;DHT22;11908;50.806;4.424;2024-01-25T15:30:04;10.70;99.90
23471;DHT22;11908;50.806;4.424;2024-01-25T15:32:34;10.70;99.90
23471;DHT22;11908;50.806;4.424;2024-01-25T15:35:01;10.80;99.90
23471;DHT22;11908;50.806;4.424;2024-01-25T15:37:26;10.80;99.90